sensor_id;sensor_type;location;lat;lon;timestamp;temperature;humidity
16289;DHT22;26089;43.538;5.250;2022-08-21T00:00:11;23.30;99.90
16289;DHT22;26089;43.538;5.250;2022-08-21T00:02:45;23.20;99.90
16289;DHT22;26089;43.538;5.250;2022-08-21T00:05:13;23.10;99.90
16289;DHT22;26089;43.538;5.250;2022-08-21T00:07:40;23.10;99.90
16289;DHT22;26089;43.538;5.250;2022-08-21T00:10:09;23.10;99.90
16289;DHT22;26089;43.538;5.250;2022-08-21T00:12:37;23.20;99.90
16289;DHT22;26089;43.538;5.250;2022-08-21T00:15:08;23.20;99.90
16289;DHT22;26089;43.538;5.250;2022-08-21T00:17:35;23.20;99.90
16289;DHT22;26089;43.538;5.250;2022-08-21T00:20:05;23.20;99.90
16289;DHT22;26089;43.538;5.250;2022-08-21T00:22:32;23.20;99.90
16289;DHT22;26089;43.538;5.250;2022-08-21T00:24:59;23.20;99.90
16289;DHT22;26089;43.538;5.250;2022-08-21T00:27:26;23.10;99.90
16289;DHT22;26089;43.538;5.250;2022-08-21T00:29:53;23.10;99.90
16289;DHT22;26089;43.538;5.250;2022-08-21T00:32:25;23.00;99.90
16289;DHT22;26089;43.538;5.250;2022-08-21T00:34:53;23.00;99.90
16289;DHT22;26089;43.538;5.250;2022-08-21T00:37:20;23.00;99.90
16289;DHT22;26089;43.538;5.250;2022-08-21T00:39:47;23.00;99.90
16289;DHT22;26089;43.538;5.250;2022-08-21T00:42:14;23.00;99.90
16289;DHT22;26089;43.538;5.250;2022-08-21T00:44:42;22.90;99.90
16289;DHT22;26089;43.538;5.250;2022-08-21T00:47:10;23.00;99.90
16289;DHT22;26089;43.538;5.250;2022-08-21T00:49:38;23.00;99.90
16289;DHT22;26089;43.538;5.250;2022-08-21T00:52:10;23.00;99.90
16289;DHT22;26089;43.538;5.250;2022-08-21T00:54:39;22.90;99.90
16289;DHT22;26089;43.538;5.250;2022-08-21T00:57:10;22.90;99.90
16289;DHT22;26089;43.538;5.250;2022-08-21T00:59:40;23.00;99.90
16289;DHT22;26089;43.538;5.250;2022-08-21T01:02:10;23.00;99.90
16289;DHT22;26089;43.538;5.250;2022-08-21T01:04:39;22.90;99.90
16289;DHT22;26089;43.538;5.250;2022-08-21T01:07:06;22.90;99.90
16289;DHT22;26089;43.538;5.250;2022-08-21T01:09:33;22.90;99.90
16289;DHT22;26089;43.538;5.250;2022-08-21T01:12:00;22.80;99.90
16289;DHT22;26089;43.538;5.250;2022-08-21T01:14:28;22.80;99.90
16289;DHT22;26089;43.538;5.250;2022-08-21T01:16:56;22.80;99.90
16289;DHT22;26089;43.538;5.250;2022-08-21T01:19:25;22.80;99.90
16289;DHT22;26089;43.538;5.250;2022-08-21T01:21:54;22.70;99.90
16289;DHT22;26089;43.538;5.250;2022-08-21T01:24:21;22.80;99.90
16289;DHT22;26089;43.538;5.250;2022-08-21T01:26:49;22.80;99.90
16289;DHT22;26089;43.538;5.250;2022-08-21T01:29:23;22.80;99.90
16289;DHT22;26089;43.538;5.250;2022-08-21T01:31:52;22.70;99.90
16289;DHT22;26089;43.538;5.250;2022-08-21T01:34:19;22.70;99.90
16289;DHT22;26089;43.538;5.250;2022-08-21T01:36:46;22.70;99.90
16289;DHT22;26089;43.538;5.250;2022-08-21T01:39:16;22.70;99.90
16289;DHT22;26089;43.538;5.250;2022-08-21T01:41:43;22.60;99.90
16289;DHT22;26089;43.538;5.250;2022-08-21T01:44:10;22.50;99.90
16289;DHT22;26089;43.538;5.250;2022-08-21T01:46:37;22.40;99.90
16289;DHT22;26089;43.538;5.250;2022-08-21T01:49:05;22.40;99.90
16289;DHT22;26089;43.538;5.250;2022-08-21T01:51:32;22.30;99.90
16289;DHT22;26089;43.538;5.250;2022-08-21T01:53:59;22.20;99.90
16289;DHT22;26089;43.538;5.250;2022-08-21T01:56:28;22.10;99.90
16289;DHT22;26089;43.538;5.250;2022-08-21T01:58:55;22.10;99.90
16289;DHT22;26089;43.538;5.250;2022-08-21T02:01:22;22.10;99.90
16289;DHT22;26089;43.538;5.250;2022-08-21T02:03:50;22.10;99.90
16289;DHT22;26089;43.538;5.250;2022-08-21T02:06:17;22.20;99.90
16289;DHT22;26089;43.538;5.250;2022-08-21T02:08:44;22.20;99.90
16289;DHT22;26089;43.538;5.250;2022-08-21T02:11:11;22.30;99.90
16289;DHT22;26089;43.538;5.250;2022-08-21T02:13:40;22.30;99.90
16289;DHT22;26089;43.538;5.250;2022-08-21T02:16:08;22.30;99.90
16289;DHT22;26089;43.538;5.250;2022-08-21T02:18:35;22.20;99.90
16289;DHT22;26089;43.538;5.250;2022-08-21T02:21:03;22.20;99.90
16289;DHT22;26089;43.538;5.250;2022-08-21T02:23:31;22.10;99.90
16289;DHT22;26089;43.538;5.250;2022-08-21T02:26:00;22.10;99.90
16289;DHT22;26089;43.538;5.250;2022-08-21T02:28:27;22.10;99.90
16289;DHT22;26089;43.538;5.250;2022-08-21T02:30:56;22.20;99.90
16289;DHT22;26089;43.538;5.250;2022-08-21T02:33:23;22.20;99.90
16289;DHT22;26089;43.538;5.250;2022-08-21T02:35:51;22.20;99.90
16289;DHT22;26089;43.538;5.250;2022-08-21T02:38:21;22.20;99.90
16289;DHT22;26089;43.538;5.250;2022-08-21T02:40:50;22.20;99.90
16289;DHT22;26089;43.538;5.250;2022-08-21T02:43:18;22.10;99.90
16289;DHT22;26089;43.538;5.250;2022-08-21T02:45:46;22.10;99.90
16289;DHT22;26089;43.538;5.250;2022-08-21T02:48:17;22.10;99.90
16289;DHT22;26089;43.538;5.250;2022-08-21T02:50:47;22.00;99.90
16289;DHT22;26089;43.538;5.250;2022-08-21T02:53:16;22.00;99.90
16289;DHT22;26089;43.538;5.250;2022-08-21T02:55:44;22.00;99.90
16289;DHT22;26089;43.538;5.250;2022-08-21T02:58:12;21.90;99.90
16289;DHT22;26089;43.538;5.250;2022-08-21T03:00:39;21.90;99.90
16289;DHT22;26089;43.538;5.250;2022-08-21T03:03:07;21.80;99.90
16289;DHT22;26089;43.538;5.250;2022-08-21T03:05:36;21.60;99.90
16289;DHT22;26089;43.538;5.250;2022-08-21T03:08:06;21.60;99.90
16289;DHT22;26089;43.538;5.250;2022-08-21T03:10:35;21.60;99.90
16289;DHT22;26089;43.538;5.250;2022-08-21T03:13:02;21.50;99.90
16289;DHT22;26089;43.538;5.250;2022-08-21T03:15:31;21.50;99.90
16289;DHT22;26089;43.538;5.250;2022-08-21T03:17:58;21.50;99.90
16289;DHT22;26089;43.538;5.250;2022-08-21T03:20:27;21.50;99.90
16289;DHT22;26089;43.538;5.250;2022-08-21T03:22:56;21.50;99.90
16289;DHT22;26089;43.538;5.250;2022-08-21T03:25:24;21.50;99.90
16289;DHT22;26089;43.538;5.250;2022-08-21T03:27:51;21.50;99.90
16289;DHT22;26089;43.538;5.250;2022-08-21T03:30:20;21.50;99.90
16289;DHT22;26089;43.538;5.250;2022-08-21T03:32:48;21.40;99.90
16289;DHT22;26089;43.538;5.250;2022-08-21T03:35:17;21.40;99.90
16289;DHT22;26089;43.538;5.250;2022-08-21T03:37:44;21.30;99.90
16289;DHT22;26089;43.538;5.250;2022-08-21T03:40:14;21.20;99.90
16289;DHT22;26089;43.538;5.250;2022-08-21T03:42:42;21.20;99.90
16289;DHT22;26089;43.538;5.250;2022-08-21T03:45:10;21.20;99.90
16289;DHT22;26089;43.538;5.250;2022-08-21T03:47:37;21.20;99.90
16289;DHT22;26089;43.538;5.250;2022-08-21T03:50:05;21.20;99.90
16289;DHT22;26089;43.538;5.250;2022-08-21T03:52:33;21.20;99.90
16289;DHT22;26089;43.538;5.250;2022-08-21T03:55:00;21.20;99.90
16289;DHT22;26089;43.538;5.250;2022-08-21T03:57:28;21.20;99.90
16289;DHT22;26089;43.538;5.250;2022-08-21T03:59:55;21.20;99.90
16289;DHT22;26089;43.538;5.250;2022-08-21T04:02:22;21.20;99.90
16289;DHT22;26089;43.538;5.250;2022-08-21T04:04:50;21.30;99.90
16289;DHT22;26089;43.538;5.250;2022-08-21T04:07:17;21.40;99.90
16289;DHT22;26089;43.538;5.250;2022-08-21T04:09:44;21.40;99.90
16289;DHT22;26089;43.538;5.250;2022-08-21T04:12:12;21.50;99.90
16289;DHT22;26089;43.538;5.250;2022-08-21T04:14:40;21.50;99.90
16289;DHT22;26089;43.538;5.250;2022-08-21T04:17:07;21.50;99.90
16289;DHT22;26089;43.538;5.250;2022-08-21T04:19:34;21.50;99.90
16289;DHT22;26089;43.538;5.250;2022-08-21T04:22:01;21.50;99.90
16289;DHT22;26089;43.538;5.250;2022-08-21T04:24:28;21.40;99.90
16289;DHT22;26089;43.538;5.250;2022-08-21T04:26:55;21.40;99.90
16289;DHT22;26089;43.538;5.250;2022-08-21T04:29:22;21.40;99.90
16289;DHT22;26089;43.538;5.250;2022-08-21T04:31:51;21.30;99.90
16289;DHT22;26089;43.538;5.250;2022-08-21T04:34:18;21.30;99.90
16289;DHT22;26089;43.538;5.250;2022-08-21T04:36:45;21.20;99.90
16289;DHT22;26089;43.538;5.250;2022-08-21T04:39:12;21.20;99.90
16289;DHT22;26089;43.538;5.250;2022-08-21T04:41:39;21.10;99.90
16289;DHT22;26089;43.538;5.250;2022-08-21T04:44:06;21.00;99.90
16289;DHT22;26089;43.538;5.250;2022-08-21T04:46:34;21.00;99.90
16289;DHT22;26089;43.538;5.250;2022-08-21T04:49:02;21.00;99.90
16289;DHT22;26089;43.538;5.250;2022-08-21T04:51:32;21.00;99.90
16289;DHT22;26089;43.538;5.250;2022-08-21T04:54:05;21.00;99.90
16289;DHT22;26089;43.538;5.250;2022-08-21T04:56:37;20.90;99.90
16289;DHT22;26089;43.538;5.250;2022-08-21T04:59:10;21.00;99.90
16289;DHT22;26089;43.538;5.250;2022-08-21T05:01:40;20.90;99.90
16289;DHT22;26089;43.538;5.250;2022-08-21T05:04:11;21.00;99.90
16289;DHT22;26089;43.538;5.250;2022-08-21T05:06:41;20.90;99.90
16289;DHT22;26089;43.538;5.250;2022-08-21T05:09:09;20.80;99.90
16289;DHT22;26089;43.538;5.250;2022-08-21T05:11:39;20.80;99.90
16289;DHT22;26089;43.538;5.250;2022-08-21T05:14:07;20.80;99.90
16289;DHT22;26089;43.538;5.250;2022-08-21T05:16:34;20.70;99.90
16289;DHT22;26089;43.538;5.250;2022-08-21T05:19:01;20.70;99.90
16289;DHT22;26089;43.538;5.250;2022-08-21T05:21:30;20.80;99.90
16289;DHT22;26089;43.538;5.250;2022-08-21T05:23:56;20.70;99.90
16289;DHT22;26089;43.538;5.250;2022-08-21T05:26:24;20.70;99.90
16289;DHT22;26089;43.538;5.250;2022-08-21T05:28:51;20.70;99.90
16289;DHT22;26089;43.538;5.250;2022-08-21T05:31:18;20.70;99.90
16289;DHT22;26089;43.538;5.250;2022-08-21T05:33:45;20.80;99.90
16289;DHT22;26089;43.538;5.250;2022-08-21T05:36:12;20.90;99.90
16289;DHT22;26089;43.538;5.250;2022-08-21T05:38:40;20.90;99.90
16289;DHT22;26089;43.538;5.250;2022-08-21T05:41:09;20.90;99.90
16289;DHT22;26089;43.538;5.250;2022-08-21T05:43:36;20.90;99.90
16289;DHT22;26089;43.538;5.250;2022-08-21T05:46:03;21.00;99.90
16289;DHT22;26089;43.538;5.250;2022-08-21T05:48:31;21.10;99.90
16289;DHT22;26089;43.538;5.250;2022-08-21T05:51:04;21.10;99.90
16289;DHT22;26089;43.538;5.250;2022-08-21T05:53:31;21.10;99.90
16289;DHT22;26089;43.538;5.250;2022-08-21T05:56:00;21.10;99.90
16289;DHT22;26089;43.538;5.250;2022-08-21T05:58:30;21.10;99.90
16289;DHT22;26089;43.538;5.250;2022-08-21T06:00:58;21.10;99.90
16289;DHT22;26089;43.538;5.250;2022-08-21T06:03:28;21.10;99.90
16289;DHT22;26089;43.538;5.250;2022-08-21T06:05:55;21.20;99.90
16289;DHT22;26089;43.538;5.250;2022-08-21T06:08:24;21.50;99.90
16289;DHT22;26089;43.538;5.250;2022-08-21T06:10:52;21.90;99.90
16289;DHT22;26089;43.538;5.250;2022-08-21T06:13:22;22.20;99.90
16289;DHT22;26089;43.538;5.250;2022-08-21T06:15:50;22.30;99.90
16289;DHT22;26089;43.538;5.250;2022-08-21T06:18:17;22.40;99.90
16289;DHT22;26089;43.538;5.250;2022-08-21T06:20:44;22.70;99.90
16289;DHT22;26089;43.538;5.250;2022-08-21T06:23:11;23.30;99.90
16289;DHT22;26089;43.538;5.250;2022-08-21T06:25:38;23.80;99.90
16289;DHT22;26089;43.538;5.250;2022-08-21T06:28:09;24.50;99.90
16289;DHT22;26089;43.538;5.250;2022-08-21T06:30:39;24.80;99.90
16289;DHT22;26089;43.538;5.250;2022-08-21T06:33:06;24.50;99.90
16289;DHT22;26089;43.538;5.250;2022-08-21T06:35:34;23.90;99.90
16289;DHT22;26089;43.538;5.250;2022-08-21T06:38:02;23.60;99.90
16289;DHT22;26089;43.538;5.250;2022-08-21T06:40:29;23.20;99.90
16289;DHT22;26089;43.538;5.250;2022-08-21T06:42:57;23.10;99.90
16289;DHT22;26089;43.538;5.250;2022-08-21T06:45:24;23.30;99.90
16289;DHT22;26089;43.538;5.250;2022-08-21T06:47:53;23.40;99.90
16289;DHT22;26089;43.538;5.250;2022-08-21T06:50:20;23.30;99.90
16289;DHT22;26089;43.538;5.250;2022-08-21T06:52:47;23.40;99.90
16289;DHT22;26089;43.538;5.250;2022-08-21T06:55:14;23.40;99.90
16289;DHT22;26089;43.538;5.250;2022-08-21T06:57:41;23.60;99.90
16289;DHT22;26089;43.538;5.250;2022-08-21T07:00:09;23.80;99.90
16289;DHT22;26089;43.538;5.250;2022-08-21T07:02:37;23.70;99.90
16289;DHT22;26089;43.538;5.250;2022-08-21T07:05:06;23.80;99.90
16289;DHT22;26089;43.538;5.250;2022-08-21T07:07:33;24.40;99.90
16289;DHT22;26089;43.538;5.250;2022-08-21T07:10:00;25.30;99.90
16289;DHT22;26089;43.538;5.250;2022-08-21T07:12:27;25.80;99.90
16289;DHT22;26089;43.538;5.250;2022-08-21T07:14:54;26.30;99.90
16289;DHT22;26089;43.538;5.250;2022-08-21T07:17:21;26.10;99.90
16289;DHT22;26089;43.538;5.250;2022-08-21T07:19:48;27.00;99.90
16289;DHT22;26089;43.538;5.250;2022-08-21T07:22:19;27.70;99.90
16289;DHT22;26089;43.538;5.250;2022-08-21T07:24:47;28.20;99.90
16289;DHT22;26089;43.538;5.250;2022-08-21T07:27:14;28.40;99.90
16289;DHT22;26089;43.538;5.250;2022-08-21T07:29:41;28.70;99.90
16289;DHT22;26089;43.538;5.250;2022-08-21T07:32:08;28.80;99.90
16289;DHT22;26089;43.538;5.250;2022-08-21T07:34:35;28.90;99.90
16289;DHT22;26089;43.538;5.250;2022-08-21T07:37:02;28.90;99.90
16289;DHT22;26089;43.538;5.250;2022-08-21T07:39:31;29.20;99.90
16289;DHT22;26089;43.538;5.250;2022-08-21T07:41:58;29.50;99.90
16289;DHT22;26089;43.538;5.250;2022-08-21T07:44:25;29.30;99.90
16289;DHT22;26089;43.538;5.250;2022-08-21T07:46:52;29.60;99.90
16289;DHT22;26089;43.538;5.250;2022-08-21T07:49:19;29.40;99.90
16289;DHT22;26089;43.538;5.250;2022-08-21T07:51:46;29.40;99.90
16289;DHT22;26089;43.538;5.250;2022-08-21T07:54:13;29.70;99.90
16289;DHT22;26089;43.538;5.250;2022-08-21T07:56:41;29.80;99.90
16289;DHT22;26089;43.538;5.250;2022-08-21T07:59:08;29.40;99.90
16289;DHT22;26089;43.538;5.250;2022-08-21T08:01:35;29.60;99.90
16289;DHT22;26089;43.538;5.250;2022-08-21T08:04:03;30.10;99.90
16289;DHT22;26089;43.538;5.250;2022-08-21T08:06:30;29.90;99.90
16289;DHT22;26089;43.538;5.250;2022-08-21T08:08:57;29.40;99.90
16289;DHT22;26089;43.538;5.250;2022-08-21T08:11:24;29.20;99.90
16289;DHT22;26089;43.538;5.250;2022-08-21T08:13:52;29.20;99.90
16289;DHT22;26089;43.538;5.250;2022-08-21T08:16:19;29.10;99.90
16289;DHT22;26089;43.538;5.250;2022-08-21T08:18:46;29.00;99.90
16289;DHT22;26089;43.538;5.250;2022-08-21T08:21:15;29.00;99.90
16289;DHT22;26089;43.538;5.250;2022-08-21T08:23:44;28.80;99.90
16289;DHT22;26089;43.538;5.250;2022-08-21T08:26:11;28.40;99.90
16289;DHT22;26089;43.538;5.250;2022-08-21T08:28:38;28.80;99.90
16289;DHT22;26089;43.538;5.250;2022-08-21T08:31:07;29.10;99.90
16289;DHT22;26089;43.538;5.250;2022-08-21T08:33:34;29.20;99.90
16289;DHT22;26089;43.538;5.250;2022-08-21T08:36:01;29.30;99.90
16289;DHT22;26089;43.538;5.250;2022-08-21T08:38:28;29.60;99.90
16289;DHT22;26089;43.538;5.250;2022-08-21T08:41:01;29.50;99.90
16289;DHT22;26089;43.538;5.250;2022-08-21T08:43:30;28.70;99.90
16289;DHT22;26089;43.538;5.250;2022-08-21T08:46:01;28.60;99.90
16289;DHT22;26089;43.538;5.250;2022-08-21T08:48:41;28.80;99.90
16289;DHT22;26089;43.538;5.250;2022-08-21T08:51:16;29.20;99.90
16289;DHT22;26089;43.538;5.250;2022-08-21T08:53:51;29.60;99.90
16289;DHT22;26089;43.538;5.250;2022-08-21T08:56:25;29.70;99.90
16289;DHT22;26089;43.538;5.250;2022-08-21T08:58:53;29.80;99.90
16289;DHT22;26089;43.538;5.250;2022-08-21T09:01:22;29.30;99.90
16289;DHT22;26089;43.538;5.250;2022-08-21T09:03:50;28.80;99.90
16289;DHT22;26089;43.538;5.250;2022-08-21T09:06:39;29.20;99.90
16289;DHT22;26089;43.538;5.250;2022-08-21T09:09:22;29.20;99.90
16289;DHT22;26089;43.538;5.250;2022-08-21T09:11:57;29.60;99.90
16289;DHT22;26089;43.538;5.250;2022-08-21T09:14:32;29.70;99.90
16289;DHT22;26089;43.538;5.250;2022-08-21T09:17:13;29.40;99.90
16289;DHT22;26089;43.538;5.250;2022-08-21T09:19:52;29.50;99.90
16289;DHT22;26089;43.538;5.250;2022-08-21T09:22:28;29.90;99.90
16289;DHT22;26089;43.538;5.250;2022-08-21T09:25:03;29.80;99.90
16289;DHT22;26089;43.538;5.250;2022-08-21T09:27:35;29.70;99.90
16289;DHT22;26089;43.538;5.250;2022-08-21T09:30:05;29.80;99.90
16289;DHT22;26089;43.538;5.250;2022-08-21T09:32:35;30.20;99.90
16289;DHT22;26089;43.538;5.250;2022-08-21T09:35:08;30.90;99.90
16289;DHT22;26089;43.538;5.250;2022-08-21T09:37:47;30.40;99.90
16289;DHT22;26089;43.538;5.250;2022-08-21T09:40:27;30.60;99.90
16289;DHT22;26089;43.538;5.250;2022-08-21T09:42:57;30.80;99.90
16289;DHT22;26089;43.538;5.250;2022-08-21T09:45:24;31.00;99.90
16289;DHT22;26089;43.538;5.250;2022-08-21T09:47:52;30.80;99.90
16289;DHT22;26089;43.538;5.250;2022-08-21T09:50:23;31.20;99.90
16289;DHT22;26089;43.538;5.250;2022-08-21T09:52:53;30.90;99.90
16289;DHT22;26089;43.538;5.250;2022-08-21T09:55:28;31.20;99.90
16289;DHT22;26089;43.538;5.250;2022-08-21T09:58:15;31.50;99.90
16289;DHT22;26089;43.538;5.250;2022-08-21T10:00:43;30.80;99.90
16289;DHT22;26089;43.538;5.250;2022-08-21T10:03:17;30.60;99.90
16289;DHT22;26089;43.538;5.250;2022-08-21T10:05:56;31.00;99.90
16289;DHT22;26089;43.538;5.250;2022-08-21T10:08:26;31.30;99.90
16289;DHT22;26089;43.538;5.250;2022-08-21T10:11:01;31.30;99.90
16289;DHT22;26089;43.538;5.250;2022-08-21T10:13:41;31.30;99.90
16289;DHT22;26089;43.538;5.250;2022-08-21T10:16:18;31.40;99.90
16289;DHT22;26089;43.538;5.250;2022-08-21T10:19:05;31.50;99.90
16289;DHT22;26089;43.538;5.250;2022-08-21T10:21:42;31.90;99.90
16289;DHT22;26089;43.538;5.250;2022-08-21T10:24:18;31.60;99.90
16289;DHT22;26089;43.538;5.250;2022-08-21T10:26:57;31.70;99.90
16289;DHT22;26089;43.538;5.250;2022-08-21T10:29:41;32.10;99.90
16289;DHT22;26089;43.538;5.250;2022-08-21T10:32:17;32.10;99.90
16289;DHT22;26089;43.538;5.250;2022-08-21T10:34:55;32.20;99.90
16289;DHT22;26089;43.538;5.250;2022-08-21T10:37:37;32.60;99.90
16289;DHT22;26089;43.538;5.250;2022-08-21T10:40:15;33.20;99.90
16289;DHT22;26089;43.538;5.250;2022-08-21T10:42:52;33.10;99.90
16289;DHT22;26089;43.538;5.250;2022-08-21T10:45:44;32.50;99.90
16289;DHT22;26089;43.538;5.250;2022-08-21T10:48:19;32.60;99.90
16289;DHT22;26089;43.538;5.250;2022-08-21T10:50:51;32.70;99.90
16289;DHT22;26089;43.538;5.250;2022-08-21T10:53:41;33.20;99.90
16289;DHT22;26089;43.538;5.250;2022-08-21T10:56:17;32.60;99.90
16289;DHT22;26089;43.538;5.250;2022-08-21T10:59:00;32.50;99.90
16289;DHT22;26089;43.538;5.250;2022-08-21T11:01:32;32.60;99.90
16289;DHT22;26089;43.538;5.250;2022-08-21T11:04:11;33.20;99.90
16289;DHT22;26089;43.538;5.250;2022-08-21T11:06:44;33.00;99.90
16289;DHT22;26089;43.538;5.250;2022-08-21T11:09:16;33.30;99.90
16289;DHT22;26089;43.538;5.250;2022-08-21T11:11:47;33.80;99.90
16289;DHT22;26089;43.538;5.250;2022-08-21T11:14:21;33.80;99.90
16289;DHT22;26089;43.538;5.250;2022-08-21T11:16:57;33.70;99.90
16289;DHT22;26089;43.538;5.250;2022-08-21T11:19:30;34.00;99.90
16289;DHT22;26089;43.538;5.250;2022-08-21T11:22:06;34.20;99.90
16289;DHT22;26089;43.538;5.250;2022-08-21T11:24:42;34.20;99.90
16289;DHT22;26089;43.538;5.250;2022-08-21T11:27:18;34.10;99.60
16289;DHT22;26089;43.538;5.250;2022-08-21T11:29:51;33.40;99.60
16289;DHT22;26089;43.538;5.250;2022-08-21T11:35:20;32.70;99.90
16289;DHT22;26089;43.538;5.250;2022-08-21T11:37:59;32.20;99.90
16289;DHT22;26089;43.538;5.250;2022-08-21T11:40:43;32.20;99.90
16289;DHT22;26089;43.538;5.250;2022-08-21T11:43:19;31.90;99.90
16289;DHT22;26089;43.538;5.250;2022-08-21T11:45:51;32.10;99.90
16289;DHT22;26089;43.538;5.250;2022-08-21T11:48:30;32.70;99.90
16289;DHT22;26089;43.538;5.250;2022-08-21T11:51:00;33.10;99.70
16289;DHT22;26089;43.538;5.250;2022-08-21T11:53:33;33.60;99.50
16289;DHT22;26089;43.538;5.250;2022-08-21T11:56:06;33.80;99.40
16289;DHT22;26089;43.538;5.250;2022-08-21T11:58:39;33.40;99.20
16289;DHT22;26089;43.538;5.250;2022-08-21T12:01:10;33.30;98.60
16289;DHT22;26089;43.538;5.250;2022-08-21T12:03:40;33.30;98.90
16289;DHT22;26089;43.538;5.250;2022-08-21T12:06:11;33.30;98.50
16289;DHT22;26089;43.538;5.250;2022-08-21T12:08:41;33.10;99.00
16289;DHT22;26089;43.538;5.250;2022-08-21T12:11:23;33.50;98.30
16289;DHT22;26089;43.538;5.250;2022-08-21T12:13:54;34.00;98.40
16289;DHT22;26089;43.538;5.250;2022-08-21T12:16:29;33.20;98.00
16289;DHT22;26089;43.538;5.250;2022-08-21T12:19:04;32.80;97.60
16289;DHT22;26089;43.538;5.250;2022-08-21T12:21:31;32.80;98.30
16289;DHT22;26089;43.538;5.250;2022-08-21T12:24:05;32.50;98.10
16289;DHT22;26089;43.538;5.250;2022-08-21T12:26:50;32.10;98.10
16289;DHT22;26089;43.538;5.250;2022-08-21T12:29:22;32.10;97.40
16289;DHT22;26089;43.538;5.250;2022-08-21T12:32:01;31.70;97.70
16289;DHT22;26089;43.538;5.250;2022-08-21T12:34:37;32.00;98.00
16289;DHT22;26089;43.538;5.250;2022-08-21T12:37:11;32.30;98.50
16289;DHT22;26089;43.538;5.250;2022-08-21T12:39:44;32.20;97.90
16289;DHT22;26089;43.538;5.250;2022-08-21T12:42:19;32.90;97.90
16289;DHT22;26089;43.538;5.250;2022-08-21T12:44:51;32.70;97.20
16289;DHT22;26089;43.538;5.250;2022-08-21T12:47:27;33.20;96.30
16289;DHT22;26089;43.538;5.250;2022-08-21T12:50:03;32.40;96.40
16289;DHT22;26089;43.538;5.250;2022-08-21T12:52:34;32.40;96.90
16289;DHT22;26089;43.538;5.250;2022-08-21T12:55:03;33.20;95.60
16289;DHT22;26089;43.538;5.250;2022-08-21T12:57:31;33.10;95.40
16289;DHT22;26089;43.538;5.250;2022-08-21T13:00:06;33.40;96.50
16289;DHT22;26089;43.538;5.250;2022-08-21T13:02:38;33.40;95.20
16289;DHT22;26089;43.538;5.250;2022-08-21T13:05:11;33.50;94.50
16289;DHT22;26089;43.538;5.250;2022-08-21T13:07:44;33.40;94.10
16289;DHT22;26089;43.538;5.250;2022-08-21T13:10:18;33.30;94.00
16289;DHT22;26089;43.538;5.250;2022-08-21T13:12:47;33.50;94.40
16289;DHT22;26089;43.538;5.250;2022-08-21T13:15:23;33.30;94.10
16289;DHT22;26089;43.538;5.250;2022-08-21T13:17:52;34.20;94.80
16289;DHT22;26089;43.538;5.250;2022-08-21T13:20:23;34.50;93.80
16289;DHT22;26089;43.538;5.250;2022-08-21T13:22:50;34.30;94.10
16289;DHT22;26089;43.538;5.250;2022-08-21T13:25:21;34.40;93.90
16289;DHT22;26089;43.538;5.250;2022-08-21T13:28:00;33.90;93.50
16289;DHT22;26089;43.538;5.250;2022-08-21T13:30:28;33.70;94.50
16289;DHT22;26089;43.538;5.250;2022-08-21T13:32:58;33.80;93.70
16289;DHT22;26089;43.538;5.250;2022-08-21T13:35:28;34.10;93.40
16289;DHT22;26089;43.538;5.250;2022-08-21T13:37:58;34.50;92.90
16289;DHT22;26089;43.538;5.250;2022-08-21T13:40:28;34.40;92.30
16289;DHT22;26089;43.538;5.250;2022-08-21T13:42:57;34.20;91.00
16289;DHT22;26089;43.538;5.250;2022-08-21T13:45:31;34.10;91.00
16289;DHT22;26089;43.538;5.250;2022-08-21T13:48:01;33.90;90.20
16289;DHT22;26089;43.538;5.250;2022-08-21T13:50:28;33.20;91.50
16289;DHT22;26089;43.538;5.250;2022-08-21T13:53:00;33.20;92.80
16289;DHT22;26089;43.538;5.250;2022-08-21T13:55:39;33.30;91.60
16289;DHT22;26089;43.538;5.250;2022-08-21T13:58:10;33.40;91.70
16289;DHT22;26089;43.538;5.250;2022-08-21T14:00:45;33.50;89.20
16289;DHT22;26089;43.538;5.250;2022-08-21T14:03:26;33.60;90.50
16289;DHT22;26089;43.538;5.250;2022-08-21T14:05:54;33.60;82.20
16289;DHT22;26089;43.538;5.250;2022-08-21T14:08:26;33.70;83.90
16289;DHT22;26089;43.538;5.250;2022-08-21T14:10:54;33.10;79.50
16289;DHT22;26089;43.538;5.250;2022-08-21T14:13:37;32.30;75.80
16289;DHT22;26089;43.538;5.250;2022-08-21T14:16:13;32.30;77.20
16289;DHT22;26089;43.538;5.250;2022-08-21T14:18:45;32.50;81.20
16289;DHT22;26089;43.538;5.250;2022-08-21T14:21:12;32.20;78.50
16289;DHT22;26089;43.538;5.250;2022-08-21T14:23:40;32.10;80.90
16289;DHT22;26089;43.538;5.250;2022-08-21T14:26:09;31.80;81.90
16289;DHT22;26089;43.538;5.250;2022-08-21T14:28:40;31.50;81.60
16289;DHT22;26089;43.538;5.250;2022-08-21T14:31:14;31.40;85.20
16289;DHT22;26089;43.538;5.250;2022-08-21T14:33:41;30.80;84.00
16289;DHT22;26089;43.538;5.250;2022-08-21T14:36:09;30.40;84.40
16289;DHT22;26089;43.538;5.250;2022-08-21T14:38:38;30.20;85.20
16289;DHT22;26089;43.538;5.250;2022-08-21T14:41:13;30.20;83.90
16289;DHT22;26089;43.538;5.250;2022-08-21T14:43:44;30.20;85.00
16289;DHT22;26089;43.538;5.250;2022-08-21T14:46:22;29.80;87.00
16289;DHT22;26089;43.538;5.250;2022-08-21T14:48:50;29.90;88.60
16289;DHT22;26089;43.538;5.250;2022-08-21T14:51:17;29.90;88.00
16289;DHT22;26089;43.538;5.250;2022-08-21T14:53:44;29.90;89.40
16289;DHT22;26089;43.538;5.250;2022-08-21T14:56:12;30.00;87.80
16289;DHT22;26089;43.538;5.250;2022-08-21T14:58:41;30.20;88.10
16289;DHT22;26089;43.538;5.250;2022-08-21T15:01:12;30.00;88.80
16289;DHT22;26089;43.538;5.250;2022-08-21T15:03:39;29.90;87.10
16289;DHT22;26089;43.538;5.250;2022-08-21T15:06:07;29.70;86.00
16289;DHT22;26089;43.538;5.250;2022-08-21T15:08:35;29.60;89.00
16289;DHT22;26089;43.538;5.250;2022-08-21T15:11:03;29.70;88.50
16289;DHT22;26089;43.538;5.250;2022-08-21T15:13:30;29.60;88.80
16289;DHT22;26089;43.538;5.250;2022-08-21T15:15:58;29.50;89.60
16289;DHT22;26089;43.538;5.250;2022-08-21T15:18:28;29.60;89.00
16289;DHT22;26089;43.538;5.250;2022-08-21T15:20:56;30.00;89.30
16289;DHT22;26089;43.538;5.250;2022-08-21T15:23:23;30.30;88.00
16289;DHT22;26089;43.538;5.250;2022-08-21T15:25:50;30.60;86.80
16289;DHT22;26089;43.538;5.250;2022-08-21T15:28:19;30.50;84.90
16289;DHT22;26089;43.538;5.250;2022-08-21T15:30:47;30.60;85.30
16289;DHT22;26089;43.538;5.250;2022-08-21T15:33:14;30.20;87.00
16289;DHT22;26089;43.538;5.250;2022-08-21T15:35:43;29.80;88.30
16289;DHT22;26089;43.538;5.250;2022-08-21T15:38:11;30.10;85.60
16289;DHT22;26089;43.538;5.250;2022-08-21T15:40:39;29.90;85.20
16289;DHT22;26089;43.538;5.250;2022-08-21T15:43:12;29.60;82.50
16289;DHT22;26089;43.538;5.250;2022-08-21T15:45:42;29.30;82.70
16289;DHT22;26089;43.538;5.250;2022-08-21T15:48:09;29.30;80.80
16289;DHT22;26089;43.538;5.250;2022-08-21T15:50:36;29.20;80.30